CYXT

Terrace Airport

Terrace, , Canada
METAR CYXT 151600Z 30006KT 20SM FEW020 SCT130 BKN210 BKN230 14/10 A3004 RMK CF1AC2CI2CI2 SLP178
Observed Flight Rules
Aug-15 @ 16:00 UTC (55 minutes ago) Visual Flight Rules
Wind Visibility Clouds
300° at 6 knots 20 miles
  • Few at 2,000' AGL
  • Scattered at 13,000' AGL
  • Broken at 21,000' AGL
  • Broken at 23,000' AGL
Temperatures Readings
Current 14°C / 57°F
Dewpoint 10°C / 50°F
Humidity 77%
Altimeter 30.04" Hg
Pressure 1017.8 hPa
Elevation 217
METAR CYXT 151600Z 30006KT 20SM FEW020 SCT130 BKN210 BKN230 14/10 A3004 RMK CF1AC2CI2CI2 SLP178
Observed Flight Rules
Aug-15 @ 16:00 UTC
(55 minutes ago)
VFR
Wind Visibility
300° at 6 knots 20 miles
Clouds
  • Few at 2,000' AGL
  • Scattered at 13,000' AGL
  • Broken at 21,000' AGL
  • Broken at 23,000' AGL
Temperature Dewpoint
14°C / 57°F 10°C / 50°F
Humidity Altimeter Pressure
77% 30.04" Hg 1017.8 hPa